createdAt,value
2019-05-03T05:39:26.522Z,18.60
2019-05-03T05:41:55.638Z,22.70
2019-05-03T06:44:26.994Z,10.27
2019-05-03T07:08:46.945Z,9.17
2019-05-03T07:11:29.164Z,9.67
2019-05-03T07:18:21.805Z,9.37
2019-05-03T10:02:08.352Z,4.10
2019-05-03T10:04:36.615Z,4.00
2019-05-03T10:07:17.399Z,3.90
2019-05-03T10:12:57.867Z,4.53
2019-05-03T10:42:09.620Z,3.20
2019-05-03T11:55:22.968Z,3.90
2019-05-03T11:58:05.642Z,4.40
2019-05-03T12:00:48.071Z,5.00
2019-05-03T12:03:25.047Z,4.27
2019-05-03T12:05:57.608Z,4.00
2019-05-03T12:08:27.092Z,4.13
2019-05-03T12:11:05.730Z,4.90
2019-05-03T12:13:39.091Z,4.90
2019-05-03T12:16:32.012Z,9.60
2019-05-03T12:18:58.273Z,14.10
2019-05-03T12:24:20.235Z,17.20
2019-05-03T12:26:58.074Z,18.60
2019-05-03T12:29:30.859Z,15.70
2019-05-03T12:32:00.047Z,15.20
2019-05-03T12:34:40.256Z,14.60
2019-05-03T12:37:32.545Z,15.13
2019-05-03T12:49:05.169Z,13.00
2019-05-03T13:14:06.679Z,12.77
2019-05-03T13:17:24.681Z,13.27
2019-05-03T13:20:00.363Z,14.17
2019-05-03T13:22:47.604Z,12.00
2019-05-03T13:28:17.176Z,14.47
2019-05-03T13:30:50.031Z,11.47
2019-05-03T13:39:35.838Z,8.73
2019-05-03T13:42:02.724Z,9.83
2019-05-03T13:44:35.856Z,9.53
2019-05-03T13:50:07.279Z,8.40
2019-05-03T13:52:52.032Z,9.10
2019-05-03T13:55:26.162Z,9.60
2019-05-03T14:01:08.312Z,10.87
2019-05-03T14:03:54.575Z,12.43
2019-05-03T14:06:27.035Z,16.20
2019-05-03T14:15:28.489Z,16.00
2019-05-03T14:18:10.561Z,15.07
2019-05-03T14:20:55.064Z,15.23
2019-05-03T14:23:25.582Z,15.67
2019-05-03T14:25:55.902Z,16.13
2019-05-03T14:28:36.562Z,15.80
2019-05-03T14:31:19.961Z,15.10
2019-05-03T14:34:06.079Z,14.17
2019-05-03T14:36:36.242Z,14.77
2019-05-03T14:39:10.217Z,12.83
2019-05-03T14:41:47.169Z,13.57
2019-05-03T14:44:18.205Z,13.97
2019-05-03T14:46:48.228Z,13.57
2019-05-03T14:49:21.575Z,13.13
2019-05-03T14:51:51.822Z,15.33
2019-05-03T14:54:30.383Z,14.00
2019-05-03T14:57:18.497Z,11.97
2019-05-03T15:00:08.928Z,12.03
2019-05-03T15:02:57.948Z,13.63
2019-05-03T15:05:31.923Z,13.10
2019-05-03T15:08:02.670Z,15.63
2019-05-03T15:10:36.528Z,14.37
2019-05-03T15:13:06.115Z,13.33
2019-05-03T15:15:48.246Z,13.03
2019-05-03T15:18:25.943Z,12.77
2019-05-03T15:20:58.833Z,13.93
2019-05-03T15:23:29.943Z,15.00
2019-05-03T15:26:04.742Z,12.50
2019-05-03T15:28:35.638Z,13.13
2019-05-03T15:31:05.059Z,14.37
2019-05-03T15:33:35.352Z,13.23
2019-05-03T15:36:08.447Z,13.33
2019-05-03T15:38:37.085Z,14.67
2019-05-03T15:41:14.746Z,16.47
2019-05-03T15:43:46.492Z,14.67
2019-05-03T15:46:17.179Z,14.13
2019-05-03T15:48:47.772Z,14.13
2019-05-03T15:51:19.085Z,13.97
2019-05-03T15:53:47.360Z,14.57
2019-05-03T15:56:15.956Z,13.70
2019-05-03T15:58:46.824Z,13.80
2019-05-03T16:01:19.669Z,15.87
2019-05-03T16:03:49.830Z,15.43
2019-05-03T16:06:18.413Z,17.63
2019-05-03T16:09:09.856Z,16.03
2019-05-03T16:11:44.950Z,17.97
2019-05-03T16:14:16.252Z,17.33
2019-05-03T16:19:49.084Z,17.57
2019-05-03T16:22:17.607Z,18.30
2019-05-03T16:25:04.993Z,18.33
2019-05-03T16:37:34.581Z,18.07
2019-05-03T16:40:31.630Z,18.07
2019-05-03T16:46:07.155Z,17.80
2019-05-03T16:48:39.529Z,22.73
2019-05-03T16:51:09.796Z,20.87
2019-05-03T16:53:38.505Z,18.70
2019-05-03T16:56:24.521Z,22.87
2019-05-03T16:58:55.383Z,19.67
2019-05-03T17:01:28.861Z,18.00
2019-05-03T17:04:20.797Z,21.93
2019-05-03T17:07:16.709Z,18.63
2019-05-03T17:09:52.223Z,18.10
2019-05-03T17:18:24.736Z,20.33
2019-05-03T17:21:01.097Z,18.57
2019-05-03T17:27:09.837Z,18.90
2019-05-03T17:30:10.003Z,17.50
2019-05-03T18:07:55.464Z,18.70
2019-05-03T18:49:35.855Z,16.33
